KCVC

Covington Municipal Airport

Atlanta, Georgia, USA
METAR KCVC 240135Z AUTO 00000KT 10SM SCT006 BKN012 23/22 A3006 RMK AO2 PNO
Observed Flight Rules
May-24 @ 01:35 UTC (22 minutes ago) Marginal Visual Flight Rules
Visibility Clouds
10 miles
  • Scattered at 600' AGL
  • Broken at 1,200' AGL
Temperatures Readings
Current 23°C / 73°F
Dewpoint 22°C / 72°F
Humidity 94%
Altimeter 30.06" Hg
Pressure 1018 hPa
Elevation 247
METAR KCVC 240135Z AUTO 00000KT 10SM SCT006 BKN012 23/22 A3006 RMK AO2 PNO
Observed Flight Rules
May-24 @ 01:35 UTC
(22 minutes ago)
MVFR
Clouds
  • Scattered at 600' AGL
  • Broken at 1,200' AGL
Temperature Dewpoint
23°C / 73°F 22°C / 72°F
Humidity Altimeter Pressure
94% 30.06" Hg 1018 hPa